Dades meteomassalio
Diari Summary for Noviembre 1, 2017 Units:  Metric    English   Both
« Previous Day
Next Day »
Diari Semanal Mensual Anual Personalitzat
  Maxima: Minima: Mijana:
Temperatura: 21.1 °C 3.3 °C 11 °C
Rosada: 12.8 °C 1.7 °C 7.1 °C
Humitat: 90 % 56 % 78 %
Velocitat del vent: 22.5 km/h 0.0 km/h 3.9 km/h
Racha vent: 22.5 km/h - -
Vent:- - SSW
Pressio: 1026.3 hPa 1022.2 hPa -
Pluja: 0.0 mm    
Historical Graphs
 
 
Tabular Data for Noviembre 1, 2017
Time Temperature Dew Point Pressure Wind Wind Speed Wind Gust Humidity Rainfall Rate (Hourly) solar Conditions
00:04 5.6 °C 3.1 °C 1025.6 hPa Calm     84 % 0.0 mm 0.0 W/m2 CLR
00:09 5.6 °C 3.1 °C 1025.6 hPa Calm     84 % 0.0 mm 0.0 W/m2 CLR
00:14 5.6 °C 3.2 °C 1025.3 hPa Calm     85 % 0.0 mm 0.0 W/m2 CLR
00:19 6.1 °C 3.8 °C 1025.3 hPa Calm     85 % 0.0 mm 0.0 W/m2 CLR
00:24 6.1 °C 3.9 °C 1025.3 hPa Calm     86 % 0.0 mm 0.0 W/m2 CLR
00:29 6.1 °C 3.9 °C 1025.3 hPa Calm     86 % 0.0 mm 0.0 W/m2 CLR
00:34 6.1 °C 3.9 °C 1025.3 hPa Calm     86 % 0.0 mm 0.0 W/m2 CLR
00:39 6.1 °C 3.9 °C 1025.3 hPa Calm     86 % 0.0 mm 0.0 W/m2 CLR
00:44 5.6 °C 3.2 °C 1025.3 hPa Calm     85 % 0.0 mm 0.0 W/m2 CLR
00:49 5.6 °C 3.4 °C 1025.3 hPa Calm     86 % 0.0 mm 0.0 W/m2 CLR
00:54 5.6 °C 3.4 °C 1025.3 hPa Calm     86 % 0.0 mm 0.0 W/m2 CLR
00:59 5.6 °C 3.4 °C 1025.3 hPa Calm     86 % 0.0 mm 0.0 W/m2 CLR
01:04 5.6 °C 3.4 °C 1025.3 hPa Calm     86 % 0.0 mm 0.0 W/m2 CLR
01:09 5.0 °C 2.8 °C 1025.3 hPa Calm     86 % 0.0 mm 0.0 W/m2 CLR
01:14 5.0 °C 2.8 °C 1025.3 hPa Calm     86 % 0.0 mm 0.0 W/m2 CLR
01:19 5.0 °C 2.8 °C 1025.3 hPa Calm     86 % 0.0 mm 0.0 W/m2 CLR
01:24 5.0 °C 3.0 °C 1025.3 hPa Calm     87 % 0.0 mm 0.0 W/m2 CLR
01:29 5.0 °C 3.0 °C 1025.3 hPa Calm     87 % 0.0 mm 0.0 W/m2 CLR
01:34 5.0 °C 3.0 °C 1025.3 hPa Calm     87 % 0.0 mm 0.0 W/m2 CLR
01:39 4.4 °C 2.4 °C 1025.3 hPa Calm     87 % 0.0 mm 0.0 W/m2 CLR
01:44 4.4 °C 2.4 °C 1025.3 hPa Calm     87 % 0.0 mm 0.0 W/m2 CLR
01:49 4.4 °C 2.6 °C 1025.3 hPa Calm     88 % 0.0 mm 0.0 W/m2 CLR
01:54 4.4 °C 2.6 °C 1025.3 hPa Calm     88 % 0.0 mm 0.0 W/m2 CLR
01:55 4.4 °C 2.6 °C 1025.3 hPa Calm     88 % 0.0 mm 0.0 W/m2 CLR
02:00 4.4 °C 2.6 °C 1025.3 hPa Calm     88 % 0.0 mm 0.0 W/m2 CLR
02:05 4.4 °C 2.4 °C 1025.3 hPa Calm     87 % 0.0 mm 0.0 W/m2 CLR
02:10 5.0 °C 3.2 °C 1025.3 hPa Calm     88 % 0.0 mm 0.0 W/m2 CLR
02:15 5.0 °C 3.2 °C 1025.3 hPa Calm     88 % 0.0 mm 0.0 W/m2 CLR
02:20 5.0 °C 3.2 °C 1025.3 hPa Calm     88 % 0.0 mm 0.0 W/m2 CLR
02:25 5.0 °C 3.2 °C 1025.3 hPa Calm     88 % 0.0 mm 0.0 W/m2 CLR
02:30 4.4 °C 2.6 °C 1025.3 hPa Calm     88 % 0.0 mm 0.0 W/m2 CLR
02:35 4.4 °C 2.6 °C 1025.3 hPa Calm     88 % 0.0 mm 0.0 W/m2 CLR
02:40 4.4 °C 2.8 °C 1025.3 hPa Calm     89 % 0.0 mm 0.0 W/m2 CLR
02:45 3.9 °C 2.2 °C 1025.3 hPa Calm     89 % 0.0 mm 0.0 W/m2 CLR
02:50 3.9 °C 2.1 °C 1025.3 hPa Calm     88 % 0.0 mm 0.0 W/m2 CLR
02:55 3.9 °C 2.2 °C 1025.3 hPa Calm     89 % 0.0 mm 0.0 W/m2 CLR
03:00 3.9 °C 2.2 °C 1025.3 hPa Calm     89 % 0.0 mm 0.0 W/m2 CLR
03:05 3.9 °C 2.2 °C 1025.3 hPa Calm     89 % 0.0 mm 0.0 W/m2 CLR
03:10 3.9 °C 2.2 °C 1025.3 hPa Calm     89 % 0.0 mm 0.0 W/m2 CLR
03:15 3.9 °C 2.2 °C 1025.3 hPa Calm     89 % 0.0 mm 0.0 W/m2 CLR
03:20 3.9 °C 2.2 °C 1025.3 hPa Calm     89 % 0.0 mm 0.0 W/m2 CLR
03:25 3.3 °C 1.7 °C 1025.3 hPa Calm     89 % 0.0 mm 0.0 W/m2 CLR
03:30 3.3 °C 1.7 °C 1025.3 hPa Calm     89 % 0.0 mm 0.0 W/m2 CLR
03:35 3.3 °C 1.7 °C 1025.3 hPa Calm     89 % 0.0 mm 0.0 W/m2 CLR
03:40 3.3 °C 1.7 °C 1025.3 hPa Calm     89 % 0.0 mm 0.0 W/m2 CLR
03:45 3.3 °C 1.7 °C 1025.3 hPa Calm     89 % 0.0 mm 0.0 W/m2 CLR
03:50 3.3 °C 1.8 °C 1025.3 hPa Calm     90 % 0.0 mm 0.0 W/m2 CLR
03:55 3.3 °C 1.8 °C 1025.3 hPa Calm     90 % 0.0 mm 0.0 W/m2 CLR
04:00 3.3 °C 1.8 °C 1025.3 hPa Calm     90 % 0.0 mm 0.0 W/m2 CLR
04:05 3.3 °C 1.8 °C 1025.3 hPa Calm     90 % 0.0 mm 0.0 W/m2 CLR
04:10 3.9 °C 2.4 °C 1025.3 hPa Calm     90 % 0.0 mm 0.0 W/m2 CLR
04:18 3.9 °C 2.4 °C 1025.3 hPa Calm     90 % 0.0 mm 0.0 W/m2 CLR
04:21 4.4 °C 2.9 °C 1025.3 hPa Calm     90 % 0.0 mm 0.0 W/m2 CLR
04:22 4.4 °C 2.9 °C 1025.3 hPa Calm     90 % 0.0 mm 0.0 W/m2 CLR
04:25 4.4 °C 2.9 °C 1025.3 hPa Calm     90 % 0.0 mm 0.0 W/m2 CLR
04:26 4.4 °C 2.9 °C 1025.3 hPa Calm     90 % 0.0 mm 0.0 W/m2 CLR
04:27 4.4 °C 2.9 °C 1025.3 hPa Calm     90 % 0.0 mm 0.0 W/m2 CLR
04:29 4.4 °C 2.9 °C 1025.3 hPa Calm     90 % 0.0 mm 0.0 W/m2 CLR
04:32 4.4 °C 2.9 °C 1025.3 hPa Calm     90 % 0.0 mm 0.0 W/m2 CLR
04:37 5.0 °C 3.5 °C 1025.3 hPa Calm     90 % 0.0 mm 0.0 W/m2 CLR
04:42 5.0 °C 3.5 °C 1025.3 hPa Calm     90 % 0.0 mm 0.0 W/m2 CLR
04:47 5.0 °C 3.5 °C 1024.9 hPa Calm     90 % 0.0 mm 0.0 W/m2 CLR
04:52 5.0 °C 3.5 °C 1025.3 hPa Calm     90 % 0.0 mm 0.0 W/m2 CLR
04:57 5.0 °C 3.5 °C 1024.9 hPa Calm     90 % 0.0 mm 0.0 W/m2 CLR
05:02 5.6 °C 4.1 °C 1025.3 hPa Calm     90 % 0.0 mm 0.0 W/m2 CLR
05:07 5.6 °C 4.1 °C 1024.9 hPa Calm     90 % 0.0 mm 0.0 W/m2 CLR
05:12 5.6 °C 4.1 °C 1024.9 hPa Calm     90 % 0.0 mm 0.0 W/m2 CLR
05:17 5.6 °C 3.9 °C 1024.9 hPa Calm     89 % 0.0 mm 0.0 W/m2 CLR
05:22 5.6 °C 3.9 °C 1024.9 hPa Calm     89 % 0.0 mm 0.0 W/m2 CLR
05:27 5.6 °C 3.9 °C 1024.9 hPa Calm     89 % 0.0 mm 0.0 W/m2 CLR
05:32 5.6 °C 3.9 °C 1024.9 hPa Calm     89 % 0.0 mm 0.0 W/m2 CLR
05:37 5.6 °C 3.9 °C 1024.9 hPa Calm     89 % 0.0 mm 0.0 W/m2 CLR
05:42 5.6 °C 3.9 °C 1024.9 hPa Calm     89 % 0.0 mm 0.0 W/m2 CLR
05:47 5.6 °C 3.9 °C 1024.9 hPa Calm     89 % 0.0 mm 0.0 W/m2 CLR
05:52 5.6 °C 3.9 °C 1024.9 hPa Calm     89 % 0.0 mm 0.0 W/m2 CLR
05:57 5.6 °C 3.9 °C 1024.9 hPa Calm     89 % 0.0 mm 0.0 W/m2 CLR
06:02 5.6 °C 3.9 °C 1024.9 hPa Calm     89 % 0.0 mm 0.0 W/m2 CLR
06:07 5.6 °C 3.9 °C 1024.9 hPa Calm     89 % 0.0 mm 0.0 W/m2 CLR
06:12 5.6 °C 3.9 °C 1024.6 hPa Calm     89 % 0.0 mm 0.0 W/m2 CLR
06:17 5.6 °C 3.9 °C 1024.6 hPa Calm     89 % 0.0 mm 0.0 W/m2 CLR
06:22 5.6 °C 3.9 °C 1024.9 hPa Calm     89 % 0.0 mm 0.0 W/m2 CLR
06:27 5.6 °C 3.9 °C 1024.6 hPa Calm     89 % 0.0 mm 0.0 W/m2 CLR
06:32 5.6 °C 3.9 °C 1024.6 hPa Calm     89 % 0.0 mm 0.0 W/m2 CLR
06:37 5.6 °C 3.9 °C 1024.6 hPa Calm     89 % 0.0 mm 0.0 W/m2 CLR
06:42 5.6 °C 3.9 °C 1024.9 hPa Calm     89 % 0.0 mm 0.0 W/m2 CLR
06:47 5.6 °C 3.9 °C 1024.9 hPa Calm     89 % 0.0 mm 0.0 W/m2 CLR
06:52 5.6 °C 3.9 °C 1024.9 hPa Calm     89 % 0.0 mm 0.0 W/m2 CLR
06:57 5.6 °C 3.9 °C 1024.9 hPa Calm     89 % 0.0 mm 0.0 W/m2 CLR
07:02 5.6 °C 3.9 °C 1024.9 hPa Calm     89 % 0.0 mm 0.0 W/m2 CLR
07:07 5.6 °C 3.9 °C 1024.9 hPa Calm     89 % 0.0 mm 0.0 W/m2 CLR
07:12 5.6 °C 3.7 °C 1024.9 hPa Calm     88 % 0.0 mm 0.0 W/m2 CLR
07:17 5.6 °C 3.9 °C 1024.9 hPa Calm     89 % 0.0 mm 0.0 W/m2 CLR
07:22 5.6 °C 3.9 °C 1024.9 hPa Calm     89 % 0.0 mm 0.0 W/m2 OVC
07:27 5.6 °C 3.9 °C 1025.3 hPa Calm     89 % 0.0 mm 0.0 W/m2 OVC
07:32 5.6 °C 3.9 °C 1025.3 hPa Calm     89 % 0.0 mm 5.0 W/m2 OVC
07:37 5.0 °C 3.5 °C 1025.3 hPa Calm     90 % 0.0 mm 9.0 W/m2 OVC
07:40 5.0 °C 3.5 °C 1025.3 hPa Calm     90 % 0.0 mm 11.0 W/m2 OVC
07:45 5.0 °C 3.3 °C 1025.3 hPa Calm     89 % 0.0 mm 14.0 W/m2 OVC
07:50 5.0 °C 3.3 °C 1025.6 hPa Calm     89 % 0.0 mm 21.0 W/m2 OVC
07:55 5.0 °C 3.3 °C 1025.6 hPa Calm     89 % 0.0 mm 25.0 W/m2 OVC
08:00 5.0 °C 3.3 °C 1025.6 hPa Calm     89 % 0.0 mm 30.0 W/m2 OVC
08:05 5.0 °C 3.5 °C 1025.6 hPa Calm     90 % 0.0 mm 33.0 W/m2 OVC
08:10 5.0 °C 3.3 °C 1025.6 hPa Calm     89 % 0.0 mm 37.0 W/m2 OVC
08:15 5.0 °C 3.3 °C 1025.6 hPa Calm     89 % 0.0 mm 51.0 W/m2 OVC
08:20 5.0 °C 3.5 °C 1026.0 hPa Calm     90 % 0.0 mm 67.0 W/m2 OVC
08:25 5.6 °C 4.1 °C 1026.0 hPa Calm     90 % 0.0 mm 91.0 W/m2 OVC
08:30 5.6 °C 3.9 °C 1026.0 hPa Calm     89 % 0.0 mm 111.0 W/m2 OVC
08:35 5.6 °C 3.7 °C 1026.0 hPa Calm     88 % 0.0 mm 120.0 W/m2 BKN
08:40 6.1 °C 4.3 °C 1026.0 hPa Calm     88 % 0.0 mm 125.0 W/m2 FEW
08:45 6.7 °C 4.8 °C 1026.3 hPa Calm     88 % 0.0 mm 130.0 W/m2 CLR
08:50 6.7 °C 4.8 °C 1026.3 hPa Calm     88 % 0.0 mm 149.0 W/m2 CLR
08:55 7.2 °C 5.2 °C 1026.3 hPa Calm     87 % 0.0 mm 169.0 W/m2 CLR
09:00 7.2 °C 5.1 °C 1026.3 hPa Calm     86 % 0.0 mm 107.0 W/m2 CLR
09:05 7.8 °C 5.2 °C 1026.3 hPa Calm     84 % 0.0 mm 200.0 W/m2 CLR
09:10 7.8 °C 5.1 °C 1026.3 hPa Calm     83 % 0.0 mm 214.0 W/m2 CLR
09:15 7.8 °C 4.9 °C 1026.3 hPa Calm     82 % 0.0 mm 230.0 W/m2 CLR
09:16 7.8 °C 4.9 °C 1026.3 hPa Calm     82 % 0.0 mm 229.0 W/m2 CLR
09:21 8.3 °C 5.3 °C 1026.3 hPa Calm     81 % 0.0 mm 246.0 W/m2 CLR
09:26 8.3 °C 5.3 °C 1026.3 hPa Calm     81 % 0.0 mm 262.0 W/m2 CLR
09:31 8.9 °C 5.8 °C 1026.3 hPa Calm     81 % 0.0 mm 272.0 W/m2 CLR
09:36 8.9 °C 5.4 °C 1026.3 hPa Calm     79 % 0.0 mm 287.0 W/m2 CLR
09:41 9.4 °C 6.2 °C 1026.3 hPa Calm     80 % 0.0 mm 295.0 W/m2 CLR
09:46 9.4 °C 6.0 °C 1026.3 hPa Calm     79 % 0.0 mm 306.0 W/m2 CLR
09:51 10.6 °C 7.1 °C 1026.3 hPa Calm     79 % 0.0 mm 318.0 W/m2 CLR
09:56 11.1 °C 7.4 °C 1026.3 hPa Calm     78 % 0.0 mm 334.0 W/m2 CLR
10:01 11.7 °C 7.8 °C 1026.3 hPa Calm     77 % 0.0 mm 345.0 W/m2 CLR
10:06 11.7 °C 7.8 °C 1026.3 hPa Calm     77 % 0.0 mm 352.0 W/m2 CLR
10:11 12.2 °C 7.9 °C 1026.3 hPa Calm     75 % 0.0 mm 366.0 W/m2 CLR
10:16 12.8 °C 8.4 °C 1026.0 hPa Calm     75 % 0.0 mm 369.0 W/m2 CLR
10:21 12.8 °C 8.4 °C 1026.0 hPa Calm     75 % 0.0 mm 374.0 W/m2 CLR
10:26 13.3 °C 9.0 °C 1026.0 hPa Calm     75 % 0.0 mm 392.0 W/m2 CLR
10:31 13.3 °C 8.8 °C 1026.0 hPa Calm     74 % 0.0 mm 403.0 W/m2 CLR
10:36 13.9 °C 9.3 °C 1026.0 hPa Calm     74 % 0.0 mm 420.0 W/m2 CLR
10:41 13.9 °C 9.1 °C 1026.0 hPa Calm     73 % 0.0 mm 432.0 W/m2 CLR
10:46 14.4 °C 9.7 °C 1026.0 hPa Calm     73 % 0.0 mm 438.0 W/m2 CLR
10:51 15.0 °C 10.2 °C 1025.6 hPa Calm     73 % 0.0 mm 448.0 W/m2 CLR
10:56 15.0 °C 10.0 °C 1025.6 hPa Calm     72 % 0.0 mm 455.0 W/m2 CLR
11:01 15.6 °C 10.3 °C 1025.6 hPa Calm     71 % 0.0 mm 466.0 W/m2 CLR
11:06 15.6 °C 10.3 °C 1025.6 hPa Calm     71 % 0.0 mm 471.0 W/m2 CLR
11:11 16.1 °C 10.8 °C 1025.6 hPa Calm     71 % 0.0 mm 469.0 W/m2 CLR
11:16 16.1 °C 10.8 °C 1025.6 hPa Calm     71 % 0.0 mm 473.0 W/m2 CLR
11:21 16.7 °C 11.2 °C 1025.6 hPa North 5.6 km/h 5.6 km/h 70 % 0.0 mm 494.0 W/m2 CLR
11:26 16.7 °C 11.2 °C 1025.6 hPa North 9.7 km/h 9.7 km/h 70 % 0.0 mm 499.0 W/m2 CLR
11:31 16.7 °C 11.2 °C 1025.6 hPa NW 9.3 km/h 9.3 km/h 70 % 0.0 mm 503.0 W/m2 CLR
11:36 16.7 °C 11.4 °C 1025.6 hPa NW 6.4 km/h 6.4 km/h 71 % 0.0 mm 510.0 W/m2 CLR
11:41 17.2 °C 11.9 °C 1025.6 hPa NNW 8.0 km/h 8.0 km/h 71 % 0.0 mm 515.0 W/m2 CLR
11:47 17.2 °C 11.9 °C 1025.3 hPa NW 5.6 km/h 5.6 km/h 71 % 0.0 mm 520.0 W/m2 CLR
11:52 17.2 °C 11.9 °C 1025.3 hPa NNW 6.4 km/h 6.4 km/h 71 % 0.0 mm 524.0 W/m2 CLR
11:57 17.2 °C 11.7 °C 1025.3 hPa NNW 8.0 km/h 8.0 km/h 70 % 0.0 mm 527.0 W/m2 CLR
12:02 17.2 °C 11.7 °C 1025.3 hPa NNW 7.4 km/h 7.4 km/h 70 % 0.0 mm 533.0 W/m2 CLR
12:07 17.8 °C 12.2 °C 1025.3 hPa North 7.4 km/h 7.4 km/h 70 % 0.0 mm 536.0 W/m2 CLR
12:12 18.3 °C 12.6 °C 1024.9 hPa NNW 5.6 km/h 5.6 km/h 69 % 0.0 mm 538.0 W/m2 CLR
12:17 18.3 °C 12.3 °C 1024.9 hPa NNW 7.4 km/h 7.4 km/h 68 % 0.0 mm 543.0 W/m2 CLR
12:22 18.3 °C 12.1 °C 1024.9 hPa NNW 7.4 km/h 7.4 km/h 67 % 0.0 mm 541.0 W/m2 CLR
12:27 18.3 °C 12.1 °C 1024.6 hPa NNW 5.6 km/h 5.6 km/h 67 % 0.0 mm 545.0 W/m2 CLR
12:32 18.3 °C 12.1 °C 1024.6 hPa NW 5.6 km/h 5.6 km/h 67 % 0.0 mm 547.0 W/m2 CLR
12:37 18.9 °C 12.6 °C 1024.6 hPa NNW 5.6 km/h 5.6 km/h 67 % 0.0 mm 547.0 W/m2 CLR
12:42 18.9 °C 12.4 °C 1024.6 hPa WNW 7.4 km/h 7.4 km/h 66 % 0.0 mm 548.0 W/m2 CLR
12:47 18.9 °C 12.2 °C 1024.6 hPa North 13.0 km/h 13.0 km/h 65 % 0.0 mm 547.0 W/m2 CLR
12:52 19.4 °C 12.7 °C 1024.3 hPa North 13.0 km/h 13.0 km/h 65 % 0.0 mm 548.0 W/m2 CLR
12:57 19.4 °C 12.4 °C 1024.3 hPa WNW 9.3 km/h 9.3 km/h 64 % 0.0 mm 547.0 W/m2 CLR
13:02 19.4 °C 12.4 °C 1024.3 hPa WNW 14.8 km/h 14.8 km/h 64 % 0.0 mm 545.0 W/m2 CLR
13:07 19.4 °C 12.2 °C 1024.3 hPa NW 5.6 km/h 5.6 km/h 63 % 0.0 mm 543.0 W/m2 CLR
13:12 19.4 °C 11.9 °C 1023.9 hPa NW 14.8 km/h 14.8 km/h 62 % 0.0 mm 543.0 W/m2 CLR
13:17 20.0 °C 12.5 °C 1023.9 hPa WNW 11.1 km/h 11.1 km/h 62 % 0.0 mm 540.0 W/m2 CLR
13:22 20.0 °C 12.2 °C 1023.9 hPa NNW 5.6 km/h   61 % 0.0 mm 540.0 W/m2 CLR
13:27 20.0 °C 12.0 °C 1023.9 hPa NNW 6.4 km/h 6.4 km/h 60 % 0.0 mm 540.0 W/m2 CLR
13:32 20.0 °C 12.0 °C 1023.9 hPa NNW 7.4 km/h 7.4 km/h 60 % 0.0 mm 536.0 W/m2 CLR
13:37 20.0 °C 12.0 °C 1023.6 hPa NW 5.6 km/h 5.6 km/h 60 % 0.0 mm 529.0 W/m2 CLR
13:42 20.6 °C 12.8 °C 1023.6 hPa NW 9.7 km/h 9.7 km/h 61 % 0.0 mm 527.0 W/m2 CLR
13:47 20.6 °C 12.0 °C 1023.6 hPa NW 16.7 km/h 16.7 km/h 58 % 0.0 mm 519.0 W/m2 CLR
13:52 20.6 °C 12.0 °C 1023.6 hPa NW 1.9 km/h 1.9 km/h 58 % 0.0 mm 503.0 W/m2 CLR
13:57 20.6 °C 11.7 °C 1023.6 hPa North 14.5 km/h 14.5 km/h 57 % 0.0 mm 482.0 W/m2 CLR
14:02 20.6 °C 11.7 °C 1023.6 hPa NW 16.7 km/h 16.7 km/h 57 % 0.0 mm 499.0 W/m2 CLR
14:07 20.6 °C 11.7 °C 1023.2 hPa NNW 9.7 km/h 9.7 km/h 57 % 0.0 mm 483.0 W/m2 CLR
14:12 20.6 °C 11.7 °C 1023.2 hPa North 8.0 km/h 8.0 km/h 57 % 0.0 mm 485.0 W/m2 CLR
14:17 20.6 °C 11.4 °C 1023.2 hPa West 6.4 km/h 6.4 km/h 56 % 0.0 mm 471.0 W/m2 CLR
14:22 20.6 °C 11.4 °C 1023.2 hPa NW 14.8 km/h 14.8 km/h 56 % 0.0 mm 441.0 W/m2 CLR
14:27 21.1 °C 12.0 °C 1022.9 hPa North 3.7 km/h 3.7 km/h 56 % 0.0 mm 443.0 W/m2 CLR
14:32 20.6 °C 11.4 °C 1022.9 hPa NNW 3.7 km/h   56 % 0.0 mm 431.0 W/m2 CLR
14:37 21.1 °C 12.0 °C 1022.9 hPa NW 13.0 km/h 13.0 km/h 56 % 0.0 mm 438.0 W/m2 CLR
14:42 21.1 °C 12.0 °C 1022.6 hPa NNW 14.8 km/h 14.8 km/h 56 % 0.0 mm 459.0 W/m2 CLR
14:47 20.6 °C 11.4 °C 1022.6 hPa NW 13.0 km/h 13.0 km/h 56 % 0.0 mm 415.0 W/m2 CLR
14:52 20.6 °C 11.7 °C 1022.6 hPa NNW 14.8 km/h 14.8 km/h 57 % 0.0 mm 413.0 W/m2 CLR
14:57 20.6 °C 11.7 °C 1022.6 hPa NW 7.4 km/h 7.4 km/h 57 % 0.0 mm 396.0 W/m2 CLR
15:02 20.6 °C 11.7 °C 1022.6 hPa NW 14.8 km/h 14.8 km/h 57 % 0.0 mm 359.0 W/m2 CLR
15:07 21.1 °C 12.3 °C 1022.6 hPa North 13.0 km/h 13.0 km/h 57 % 0.0 mm 309.0 W/m2 CLR
15:12 20.6 °C 11.7 °C 1022.6 hPa Calm     57 % 0.0 mm 255.0 W/m2 CLR
15:17 20.6 °C 12.0 °C 1022.6 hPa NNE 13.0 km/h 13.0 km/h 58 % 0.0 mm 267.0 W/m2 CLR
15:22 20.6 °C 12.3 °C 1022.2 hPa North 9.7 km/h 9.7 km/h 59 % 0.0 mm 241.0 W/m2 CLR
15:27 20.6 °C 12.3 °C 1022.2 hPa North 3.7 km/h   59 % 0.0 mm 306.0 W/m2 CLR
15:32 20.6 °C 12.3 °C 1022.2 hPa North 13.0 km/h 13.0 km/h 59 % 0.0 mm 294.0 W/m2 CLR
15:37 20.6 °C 12.0 °C 1022.2 hPa North 7.4 km/h 7.4 km/h 58 % 0.0 mm 221.0 W/m2 CLR
15:42 20.6 °C 12.3 °C 1022.2 hPa Calm     59 % 0.0 mm 355.0 W/m2 CLR
15:47 21.1 °C 12.8 °C 1022.2 hPa NE 7.4 km/h 7.4 km/h 59 % 0.0 mm 334.0 W/m2 CLR
15:52 21.1 °C 12.8 °C 1022.2 hPa NNE 9.3 km/h 9.3 km/h 59 % 0.0 mm 306.0 W/m2 CLR
15:57 21.1 °C 12.8 °C 1022.2 hPa NNE 12.9 km/h 12.9 km/h 59 % 0.0 mm 297.0 W/m2 CLR
16:02 20.6 °C 12.3 °C 1022.2 hPa NNE 18.5 km/h 18.5 km/h 59 % 0.0 mm 281.0 W/m2 CLR
16:07 20.6 °C 12.5 °C 1022.2 hPa North 9.3 km/h 9.3 km/h 60 % 0.0 mm 264.0 W/m2 CLR
16:12 20.6 °C 12.5 °C 1022.2 hPa NNW 13.0 km/h 13.0 km/h 60 % 0.0 mm 239.0 W/m2 CLR
16:17 20.6 °C 12.8 °C 1022.2 hPa NNE 11.1 km/h 11.1 km/h 61 % 0.0 mm 221.0 W/m2 CLR
16:22 20.0 °C 12.2 °C 1022.2 hPa North 14.8 km/h 14.8 km/h 61 % 0.0 mm 195.0 W/m2 CLR
16:27 20.0 °C 12.5 °C 1022.2 hPa NE 11.3 km/h 11.3 km/h 62 % 0.0 mm 190.0 W/m2 CLR
16:32 20.0 °C 12.0 °C 1022.2 hPa NE 20.4 km/h 20.4 km/h 60 % 0.0 mm 178.0 W/m2 CLR
16:37 19.4 °C 11.5 °C 1022.2 hPa ENE 18.5 km/h 18.5 km/h 60 % 0.0 mm 156.0 W/m2 CLR
16:42 19.4 °C 11.7 °C 1022.2 hPa NE 16.7 km/h 16.7 km/h 61 % 0.0 mm 142.0 W/m2 CLR
16:47 19.4 °C 11.7 °C 1022.2 hPa NE 18.5 km/h 18.5 km/h 61 % 0.0 mm 127.0 W/m2 CLR
16:52 18.9 °C 11.4 °C 1022.2 hPa NE 16.7 km/h 16.7 km/h 62 % 0.0 mm 105.0 W/m2 CLR
16:57 18.9 °C 11.7 °C 1022.2 hPa NE 14.8 km/h 14.8 km/h 63 % 0.0 mm 95.0 W/m2 CLR
17:02 18.9 °C 11.9 °C 1022.2 hPa NE 16.7 km/h 16.7 km/h 64 % 0.0 mm 77.0 W/m2 FEW
17:07 18.3 °C 11.6 °C 1022.2 hPa ENE 22.5 km/h 22.5 km/h 65 % 0.0 mm 58.0 W/m2 SCT
17:12 18.3 °C 11.9 °C 1022.2 hPa ENE 20.4 km/h 20.4 km/h 66 % 0.0 mm 47.0 W/m2 SCT
17:13 18.3 °C 11.9 °C 1022.2 hPa ENE 20.4 km/h 20.4 km/h 66 % 0.0 mm 47.0 W/m2 SCT
17:18 18.3 °C 11.9 °C 1022.6 hPa ENE 16.7 km/h 16.7 km/h 66 % 0.0 mm 39.0 W/m2 BKN
17:23 18.3 °C 12.1 °C 1022.6 hPa NE 19.3 km/h 19.3 km/h 67 % 0.0 mm 28.0 W/m2 BKN
17:28 17.8 °C 11.6 °C 1022.6 hPa ENE 16.7 km/h 16.7 km/h 67 % 0.0 mm 21.0 W/m2 BKN
17:33 17.8 °C 11.6 °C 1022.6 hPa ENE 13.0 km/h 13.0 km/h 67 % 0.0 mm 18.0 W/m2 BKN
17:38 17.2 °C 11.3 °C 1022.6 hPa ENE 7.4 km/h 7.4 km/h 68 % 0.0 mm 16.0 W/m2 BKN
17:43 17.2 °C 11.5 °C 1022.6 hPa ENE 14.8 km/h 14.8 km/h 69 % 0.0 mm 11.0 W/m2 BKN
17:48 16.7 °C 10.9 °C 1022.6 hPa ENE 7.4 km/h 7.4 km/h 69 % 0.0 mm 7.0 W/m2 BKN
17:53 16.7 °C 11.2 °C 1022.6 hPa Calm     70 % 0.0 mm 0.0 W/m2 OVC
17:58 16.7 °C 11.4 °C 1022.6 hPa ENE 11.1 km/h 11.1 km/h 71 % 0.0 mm 0.0 W/m2 OVC
18:03 16.1 °C 11.1 °C 1022.6 hPa NE 11.1 km/h 11.1 km/h 72 % 0.0 mm 0.0 W/m2 CLR
18:08 15.6 °C 10.5 °C 1022.9 hPa ENE 14.8 km/h 14.8 km/h 72 % 0.0 mm 0.0 W/m2 CLR
18:13 15.6 °C 10.7 °C 1022.9 hPa NE 13.0 km/h 13.0 km/h 73 % 0.0 mm 0.0 W/m2 CLR
18:18 15.6 °C 10.7 °C 1022.9 hPa ENE 9.3 km/h 9.3 km/h 73 % 0.0 mm 0.0 W/m2 CLR
18:23 15.6 °C 10.9 °C 1022.9 hPa ENE 14.8 km/h 14.8 km/h 74 % 0.0 mm 0.0 W/m2 CLR
18:28 15.0 °C 10.4 °C 1022.9 hPa ENE 13.0 km/h 13.0 km/h 74 % 0.0 mm 0.0 W/m2 CLR
18:33 15.0 °C 10.6 °C 1022.9 hPa ENE 13.0 km/h 13.0 km/h 75 % 0.0 mm 0.0 W/m2 CLR
18:38 15.0 °C 10.8 °C 1022.9 hPa East 16.7 km/h 16.7 km/h 76 % 0.0 mm 0.0 W/m2 CLR
18:43 15.0 °C 10.8 °C 1022.9 hPa ENE 5.6 km/h   76 % 0.0 mm 0.0 W/m2 CLR
18:48 15.0 °C 10.8 °C 1023.2 hPa East 11.1 km/h 11.1 km/h 76 % 0.0 mm 0.0 W/m2 CLR
18:53 14.4 °C 10.4 °C 1023.2 hPa Calm     77 % 0.0 mm 0.0 W/m2 CLR
18:58 14.4 °C 10.4 °C 1023.2 hPa Calm     77 % 0.0 mm 0.0 W/m2 CLR
19:03 13.9 °C 10.1 °C 1023.2 hPa Calm     78 % 0.0 mm 0.0 W/m2 CLR
19:04 13.9 °C 10.1 °C 1023.2 hPa Calm     78 % 0.0 mm 0.0 W/m2 CLR
19:09 13.9 °C 10.1 °C 1023.2 hPa Calm     78 % 0.0 mm 0.0 W/m2 CLR
19:14 13.3 °C 9.6 °C 1023.2 hPa Calm     78 % 0.0 mm 0.0 W/m2 CLR
19:19 13.3 °C 9.8 °C 1023.2 hPa Calm     79 % 0.0 mm 0.0 W/m2 CLR
19:24 12.8 °C 9.2 °C 1023.2 hPa Calm     79 % 0.0 mm 0.0 W/m2 CLR
19:29 12.2 °C 8.7 °C 1023.2 hPa Calm     79 % 0.0 mm 0.0 W/m2 CLR
19:35 12.2 °C 8.7 °C 1023.2 hPa Calm     79 % 0.0 mm 0.0 W/m2 CLR
19:40 11.7 °C 8.2 °C 1023.2 hPa Calm     79 % 0.0 mm 0.0 W/m2 CLR
19:45 11.7 °C 8.2 °C 1023.6 hPa Calm     79 % 0.0 mm 0.0 W/m2 CLR
19:50 11.1 °C 7.6 °C 1023.6 hPa Calm     79 % 0.0 mm 0.0 W/m2 CLR
19:55 11.1 °C 7.8 °C 1023.6 hPa Calm     80 % 0.0 mm 0.0 W/m2 CLR
20:00 11.1 °C 7.9 °C 1023.6 hPa Calm     81 % 0.0 mm 0.0 W/m2 CLR
20:05 11.1 °C 7.9 °C 1023.6 hPa Calm     81 % 0.0 mm 0.0 W/m2 CLR
20:10 10.6 °C 7.4 °C 1023.6 hPa Calm     81 % 0.0 mm 0.0 W/m2 CLR
20:15 10.6 °C 7.4 °C 1023.6 hPa Calm     81 % 0.0 mm 0.0 W/m2 CLR
20:20 10.6 °C 7.4 °C 1023.2 hPa Calm     81 % 0.0 mm 0.0 W/m2 CLR
20:25 10.6 °C 7.6 °C 1023.2 hPa East 12.9 km/h 12.9 km/h 82 % 0.0 mm 0.0 W/m2 CLR
20:30 10.0 °C 6.9 °C 1023.6 hPa ENE 14.8 km/h 14.8 km/h 81 % 0.0 mm 0.0 W/m2 CLR
20:35 10.0 °C 6.9 °C 1023.2 hPa ENE 7.4 km/h 7.4 km/h 81 % 0.0 mm 0.0 W/m2 CLR
20:40 10.0 °C 6.7 °C 1023.2 hPa ENE 11.1 km/h 11.1 km/h 80 % 0.0 mm 0.0 W/m2 CLR
20:45 10.0 °C 6.7 °C 1023.2 hPa ENE 14.8 km/h 14.8 km/h 80 % 0.0 mm 0.0 W/m2 CLR
20:50 9.4 °C 6.2 °C 1023.2 hPa East 13.0 km/h 13.0 km/h 80 % 0.0 mm 0.0 W/m2 CLR
20:55 9.4 °C 6.0 °C 1023.6 hPa East 11.3 km/h 11.3 km/h 79 % 0.0 mm 0.0 W/m2 CLR
21:00 9.4 °C 6.0 °C 1023.6 hPa East 14.8 km/h 14.8 km/h 79 % 0.0 mm 0.0 W/m2 CLR
21:05 9.4 °C 6.0 °C 1023.6 hPa East 16.1 km/h 16.1 km/h 79 % 0.0 mm 0.0 W/m2 CLR
21:10 9.4 °C 6.2 °C 1023.6 hPa East 14.8 km/h 14.8 km/h 80 % 0.0 mm 0.0 W/m2 CLR
21:15 9.4 °C 6.2 °C 1023.6 hPa East 14.8 km/h 14.8 km/h 80 % 0.0 mm 0.0 W/m2 CLR
21:20 9.4 °C 6.2 °C 1023.6 hPa East 5.6 km/h   80 % 0.0 mm 0.0 W/m2 CLR
21:25 9.4 °C 6.2 °C 1023.6 hPa Calm     80 % 0.0 mm 0.0 W/m2 CLR
21:30 9.4 °C 6.2 °C 1023.6 hPa Calm     80 % 0.0 mm 0.0 W/m2 CLR
21:35 9.4 °C 6.2 °C 1023.6 hPa Calm     80 % 0.0 mm 0.0 W/m2 CLR
21:40 9.4 °C 6.3 °C 1023.6 hPa Calm     81 % 0.0 mm 0.0 W/m2 CLR
21:45 9.4 °C 6.3 °C 1023.6 hPa Calm     81 % 0.0 mm 0.0 W/m2 CLR
21:50 9.4 °C 6.5 °C 1023.6 hPa Calm     82 % 0.0 mm 0.0 W/m2 CLR
21:55 9.4 °C 6.5 °C 1023.9 hPa Calm     82 % 0.0 mm 0.0 W/m2 CLR
22:00 9.4 °C 6.5 °C 1023.9 hPa Calm     82 % 0.0 mm 0.0 W/m2 CLR
22:06 9.4 °C 6.3 °C 1023.9 hPa Calm     81 % 0.0 mm 0.0 W/m2 CLR
22:11 9.4 °C 6.5 °C 1023.9 hPa Calm     82 % 0.0 mm 0.0 W/m2 CLR
22:16 9.4 °C 6.7 °C 1023.9 hPa Calm     83 % 0.0 mm 0.0 W/m2 CLR
22:21 9.4 °C 6.9 °C 1023.9 hPa Calm     84 % 0.0 mm 0.0 W/m2 CLR
22:26 9.4 °C 7.1 °C 1023.9 hPa Calm     85 % 0.0 mm 0.0 W/m2 CLR
22:31 9.4 °C 6.9 °C 1023.9 hPa Calm     84 % 0.0 mm 0.0 W/m2 CLR
22:36 9.4 °C 6.9 °C 1023.9 hPa Calm     84 % 0.0 mm 0.0 W/m2 CLR
22:41 9.4 °C 7.1 °C 1023.9 hPa Calm     85 % 0.0 mm 0.0 W/m2 CLR
22:46 9.4 °C 7.1 °C 1023.9 hPa Calm     85 % 0.0 mm 0.0 W/m2 CLR
22:51 8.9 °C 6.5 °C 1023.9 hPa Calm     85 % 0.0 mm 0.0 W/m2 CLR
22:56 8.9 °C 6.5 °C 1023.9 hPa Calm     85 % 0.0 mm 0.0 W/m2 CLR
23:01 8.3 °C 5.9 °C 1023.9 hPa Calm     85 % 0.0 mm 0.0 W/m2 CLR
23:06 8.9 °C 6.7 °C 1023.9 hPa Calm     86 % 0.0 mm 0.0 W/m2 CLR
23:11 8.3 °C 6.3 °C 1023.9 hPa Calm     87 % 0.0 mm 0.0 W/m2 CLR
23:16 8.3 °C 6.1 °C 1023.9 hPa Calm     86 % 0.0 mm 0.0 W/m2 CLR
23:21 7.8 °C 5.7 °C 1023.9 hPa Calm     87 % 0.0 mm 0.0 W/m2 CLR
23:26 7.8 °C 5.7 °C 1023.9 hPa Calm     87 % 0.0 mm 0.0 W/m2 CLR
23:31 7.8 °C 5.7 °C 1023.9 hPa Calm     87 % 0.0 mm 0.0 W/m2 CLR
23:36 7.8 °C 5.7 °C 1023.9 hPa Calm     87 % 0.0 mm 0.0 W/m2 CLR
23:41 7.2 °C 5.2 °C 1023.9 hPa Calm     87 % 0.0 mm 0.0 W/m2 CLR
23:46 7.2 °C 5.2 °C 1023.9 hPa Calm     87 % 0.0 mm 0.0 W/m2 CLR
23:51 7.2 °C 5.2 °C 1023.6 hPa Calm     87 % 0.0 mm 0.0 W/m2 CLR
23:56 7.2 °C 5.2 °C 1023.6 hPa Calm     87 % 0.0 mm 0.0 W/m2 CLR
Lo Temps de Massalio
Compliments of Weather Underground - 1.25 mb